createdAt,value
2024-02-29T00:03:10.408Z,98481.00
2024-02-29T00:08:32.887Z,98482.00
2024-02-29T00:13:55.047Z,98466.00
2024-02-29T00:19:16.986Z,98470.00
2024-02-29T00:24:38.866Z,98469.00
2024-02-29T00:30:01.268Z,98461.00
2024-02-29T00:35:24.059Z,98455.00
2024-02-29T00:40:46.384Z,98453.00
2024-02-29T00:46:08.747Z,98459.00
2024-02-29T00:51:34.135Z,98443.00
2024-02-29T00:56:58.916Z,98448.00
2024-02-29T01:02:20.940Z,98437.00
2024-02-29T01:07:43.367Z,98439.00
2024-02-29T01:13:09.025Z,98447.00
2024-02-29T01:18:37.465Z,98430.00
2024-02-29T01:24:04.705Z,98415.00
2024-02-29T01:29:27.091Z,98412.00
2024-02-29T01:34:49.675Z,98412.00
2024-02-29T01:40:12.169Z,98399.00
2024-02-29T01:45:34.460Z,98397.00
2024-02-29T01:51:03.165Z,98398.00
2024-02-29T01:56:25.782Z,98408.00
2024-02-29T02:01:48.220Z,98385.00
2024-02-29T02:07:13.524Z,98382.00
2024-02-29T02:12:35.988Z,98379.00
2024-02-29T02:17:58.089Z,98366.00
2024-02-29T02:23:26.130Z,98359.00
2024-02-29T02:28:48.425Z,98364.00
2024-02-29T02:34:10.823Z,98356.00
2024-02-29T02:39:32.899Z,98357.00
2024-02-29T02:44:54.947Z,98353.00
2024-02-29T02:50:16.944Z,98353.00
2024-02-29T02:55:38.977Z,98351.00
2024-02-29T03:01:02.286Z,98347.00
2024-02-29T03:06:25.375Z,98343.00
2024-02-29T03:11:51.143Z,98343.00
2024-02-29T03:17:16.102Z,98340.00
2024-02-29T03:22:47.819Z,98344.00
2024-02-29T03:28:15.493Z,98345.00
2024-02-29T03:33:37.656Z,98333.00
2024-02-29T03:38:59.724Z,98341.00
2024-02-29T03:44:21.918Z,98329.00
2024-02-29T03:49:43.982Z,98335.00
2024-02-29T03:55:06.906Z,98335.00
2024-02-29T04:00:29.533Z,98315.00
2024-02-29T04:05:51.674Z,98318.00
2024-02-29T04:11:15.869Z,98306.00
2024-02-29T04:16:41.613Z,98314.00
2024-02-29T04:22:08.844Z,98307.00
2024-02-29T04:27:33.140Z,98302.00
2024-02-29T04:32:55.794Z,98303.00
2024-02-29T04:38:17.680Z,98296.00
2024-02-29T04:43:41.088Z,98294.00
2024-02-29T04:49:03.328Z,98282.00
2024-02-29T04:54:25.301Z,98285.00
2024-02-29T04:59:47.611Z,98289.00
2024-02-29T05:05:14.665Z,98282.00
2024-02-29T05:10:37.296Z,98275.00
2024-02-29T05:15:59.654Z,98282.00
2024-02-29T05:21:21.922Z,98279.00
2024-02-29T05:26:47.347Z,98283.00
2024-02-29T05:32:15.754Z,98271.00
2024-02-29T05:37:44.287Z,98274.00
2024-02-29T05:43:06.763Z,98267.00
2024-02-29T05:48:36.756Z,98267.00
2024-02-29T05:53:59.384Z,98257.00
2024-02-29T05:59:21.367Z,98255.00
2024-02-29T06:04:43.616Z,98262.00
2024-02-29T06:10:11.829Z,98256.00
2024-02-29T06:15:33.954Z,98262.00
2024-02-29T06:20:56.097Z,98266.00
2024-02-29T06:26:20.277Z,98271.00
2024-02-29T06:31:54.254Z,98260.00
2024-02-29T06:37:18.999Z,98274.00
2024-02-29T06:42:42.547Z,98257.00
2024-02-29T06:48:05.506Z,98271.00
2024-02-29T06:53:29.720Z,98253.00
2024-02-29T06:58:52.088Z,98254.00
2024-02-29T07:04:14.148Z,98252.00
2024-02-29T07:09:36.353Z,98266.00
2024-02-29T07:14:58.302Z,98254.00
2024-02-29T07:20:20.629Z,98248.00
2024-02-29T07:25:42.620Z,98244.00
2024-02-29T07:31:07.267Z,98242.00
2024-02-29T07:36:29.305Z,98246.00
2024-02-29T07:41:51.334Z,98241.00
2024-02-29T07:47:13.715Z,98235.00
2024-02-29T07:52:39.966Z,98233.00
2024-02-29T07:58:02.838Z,98226.00
2024-02-29T08:03:28.481Z,98233.00
2024-02-29T08:08:50.987Z,98232.00
2024-02-29T08:14:13.178Z,98224.00
2024-02-29T08:19:35.393Z,98216.00
2024-02-29T08:25:22.197Z,98209.00
2024-02-29T08:30:45.220Z,98200.00
2024-02-29T08:36:14.105Z,98194.00
2024-02-29T08:41:36.002Z,98187.00
2024-02-29T08:47:06.956Z,98175.00
2024-02-29T08:52:33.323Z,98165.00
2024-02-29T08:57:56.545Z,98169.00
2024-02-29T09:03:18.637Z,98156.00
2024-02-29T09:08:40.635Z,98146.00
2024-02-29T09:14:02.661Z,98144.00
2024-02-29T09:19:24.970Z,98136.00
2024-02-29T09:24:47.239Z,98119.00
2024-02-29T09:30:09.785Z,98118.00
2024-02-29T09:35:31.816Z,98096.00
2024-02-29T09:41:03.296Z,98099.00
2024-02-29T09:46:35.090Z,98097.00
2024-02-29T09:52:00.333Z,98096.00
2024-02-29T09:57:22.774Z,98091.00
2024-02-29T10:02:52.886Z,98088.00
2024-02-29T10:08:18.688Z,98086.00
2024-02-29T10:13:41.785Z,98083.00
2024-02-29T10:19:04.050Z,98077.00
2024-02-29T10:24:26.272Z,98072.00
2024-02-29T10:29:50.029Z,98076.00
2024-02-29T10:35:25.985Z,98066.00
2024-02-29T10:40:52.121Z,98056.00
2024-02-29T10:46:18.966Z,98052.00
2024-02-29T10:51:46.034Z,98037.00
2024-02-29T10:57:16.288Z,98033.00
2024-02-29T11:02:44.880Z,98026.00
2024-02-29T11:08:18.747Z,98023.00
2024-02-29T11:13:43.337Z,98001.00
2024-02-29T11:19:10.949Z,97993.00
2024-02-29T11:24:42.367Z,97997.00
2024-02-29T11:30:14.647Z,97994.00
2024-02-29T11:35:39.637Z,97968.00
2024-02-29T11:41:03.446Z,97963.00
2024-02-29T11:46:29.666Z,97955.00
2024-02-29T11:51:55.704Z,97953.00
2024-02-29T11:57:22.850Z,97941.00
2024-02-29T12:02:45.778Z,97931.00
2024-02-29T12:08:09.280Z,97921.00
2024-02-29T12:13:43.675Z,97919.00
2024-02-29T12:19:07.423Z,97906.00
2024-02-29T12:24:30.369Z,97902.00
2024-02-29T12:29:53.772Z,97894.00
2024-02-29T12:35:15.923Z,97877.00
2024-02-29T12:40:37.872Z,97879.00
2024-02-29T12:46:00.402Z,97882.00
2024-02-29T12:51:22.356Z,97865.00
2024-02-29T12:56:46.116Z,97856.00
2024-02-29T13:02:17.358Z,97854.00
2024-02-29T13:07:39.794Z,97848.00
2024-02-29T13:13:10.150Z,97835.00
2024-02-29T13:18:34.104Z,97820.00
2024-02-29T13:23:56.230Z,97823.00
2024-02-29T13:29:18.920Z,97818.00
2024-02-29T13:34:41.278Z,97821.00
2024-02-29T13:40:04.825Z,97801.00
2024-02-29T13:45:36.604Z,97791.00
2024-02-29T13:51:01.784Z,97794.00
2024-02-29T13:56:27.069Z,97782.00
2024-02-29T14:01:53.202Z,97771.00
2024-02-29T14:07:18.290Z,97767.00
2024-02-29T14:12:49.504Z,97761.00
2024-02-29T14:18:14.792Z,97753.00
2024-02-29T14:23:36.465Z,97746.00
2024-02-29T14:29:05.878Z,97747.00
2024-02-29T14:34:27.551Z,97735.00
2024-02-29T14:39:49.821Z,97729.00
2024-02-29T14:45:12.197Z,97726.00
2024-02-29T14:50:34.304Z,97724.00
2024-02-29T14:55:59.068Z,97727.00
2024-02-29T15:01:23.762Z,97712.00
2024-02-29T15:06:48.185Z,97711.00
2024-02-29T15:12:18.057Z,97698.00
2024-02-29T15:17:42.301Z,97696.00
2024-02-29T15:23:04.234Z,97696.00
2024-02-29T15:28:29.326Z,97689.00
2024-02-29T15:33:54.114Z,97685.00
2024-02-29T15:39:16.824Z,97693.00
2024-02-29T15:44:38.602Z,97675.00
2024-02-29T15:50:00.554Z,97665.00
2024-02-29T15:55:24.214Z,97666.00
2024-02-29T16:00:46.319Z,97657.00
2024-02-29T16:06:13.040Z,97666.00
2024-02-29T16:11:34.952Z,97661.00
2024-02-29T16:17:01.552Z,97642.00
2024-02-29T16:22:26.362Z,97650.00
2024-02-29T16:27:52.870Z,97642.00
2024-02-29T16:33:14.862Z,97636.00
2024-02-29T16:38:38.715Z,97621.00
2024-02-29T16:44:01.051Z,97625.00
2024-02-29T16:49:22.997Z,97626.00
2024-02-29T16:54:44.882Z,97624.00
2024-02-29T17:00:10.018Z,97633.00
2024-02-29T17:05:32.850Z,97616.00
2024-02-29T17:10:57.761Z,97613.00
2024-02-29T17:16:27.351Z,97603.00
2024-02-29T17:21:49.340Z,97606.00
2024-02-29T17:27:16.681Z,97597.00
2024-02-29T17:32:39.858Z,97596.00
2024-02-29T17:38:02.764Z,97582.00
2024-02-29T17:43:24.839Z,97584.00
2024-02-29T17:48:50.053Z,97582.00
2024-02-29T17:54:12.312Z,97561.00
2024-02-29T17:59:36.081Z,97556.00
2024-02-29T18:05:01.237Z,97545.00
2024-02-29T18:10:23.566Z,97541.00
2024-02-29T18:15:45.582Z,97534.00
2024-02-29T18:21:10.214Z,97518.00
2024-02-29T18:26:34.548Z,97513.00
2024-02-29T18:32:01.436Z,97504.00
2024-02-29T18:37:31.937Z,97502.00
2024-02-29T18:42:56.315Z,97498.00
2024-02-29T18:48:18.777Z,97477.00
2024-02-29T18:53:50.179Z,97475.00
2024-02-29T18:59:14.226Z,97473.00
2024-02-29T19:04:36.478Z,97464.00
2024-02-29T19:10:21.996Z,97464.00
2024-02-29T19:15:44.372Z,97448.00
2024-02-29T19:21:08.949Z,97454.00
2024-02-29T19:26:33.404Z,97436.00
2024-02-29T19:32:00.420Z,97431.00
2024-02-29T19:37:22.389Z,97417.00
2024-02-29T19:43:10.968Z,97416.00
2024-02-29T19:48:33.136Z,97403.00
2024-02-29T19:53:57.365Z,97394.00
2024-02-29T19:59:19.580Z,97393.00
2024-02-29T20:04:41.755Z,97383.00
2024-02-29T20:10:04.081Z,97384.00
2024-02-29T20:15:26.156Z,97377.00
2024-02-29T20:20:47.959Z,97380.00
2024-02-29T20:26:16.268Z,97362.00
2024-02-29T20:31:38.334Z,97350.00
2024-02-29T20:37:03.242Z,97354.00
2024-02-29T20:42:25.382Z,97335.00
2024-02-29T20:47:49.659Z,97335.00
2024-02-29T20:53:13.818Z,97330.00
2024-02-29T20:58:39.299Z,97311.00
2024-02-29T21:04:01.469Z,97315.00
2024-02-29T21:09:23.762Z,97309.00
2024-02-29T21:14:45.620Z,97297.00
2024-02-29T21:20:08.317Z,97295.00
2024-02-29T21:25:30.701Z,97292.00
2024-02-29T21:30:52.961Z,97281.00
2024-02-29T21:36:17.137Z,97278.00
2024-02-29T21:41:39.103Z,97287.00
2024-02-29T21:47:04.713Z,97279.00
2024-02-29T21:52:29.210Z,97266.00
2024-02-29T21:57:55.783Z,97264.00
2024-02-29T22:03:22.972Z,97269.00
2024-02-29T22:08:47.763Z,97256.00
2024-02-29T22:14:09.562Z,97258.00
2024-02-29T22:19:31.930Z,97236.00
2024-02-29T22:24:55.435Z,97237.00
2024-02-29T22:30:18.184Z,97224.00
2024-02-29T22:35:40.194Z,97214.00
2024-02-29T22:41:02.681Z,97215.00
2024-02-29T22:46:24.986Z,97212.00
2024-02-29T22:51:46.945Z,97200.00
2024-02-29T22:57:09.206Z,97192.00
2024-02-29T23:02:31.393Z,97197.00
2024-02-29T23:07:53.685Z,97186.00
2024-02-29T23:13:15.945Z,97185.00
2024-02-29T23:18:38.001Z,97183.00
2024-02-29T23:24:00.057Z,97184.00
2024-02-29T23:29:21.983Z,97178.00
2024-02-29T23:34:43.719Z,97175.00
2024-02-29T23:40:06.514Z,97180.00
2024-02-29T23:45:28.932Z,97168.00
2024-02-29T23:50:50.999Z,97163.00
2024-02-29T23:56:12.910Z,97162.00
